createdAt,value
2022-10-20T00:01:36.099Z,12.27
2022-10-20T00:04:18.874Z,12.60
2022-10-20T00:07:01.925Z,12.45
2022-10-20T00:09:42.906Z,13.25
2022-10-20T00:15:04.190Z,12.98
2022-10-20T00:17:49.137Z,14.60
2022-10-20T00:20:32.014Z,21.63
2022-10-20T00:23:20.552Z,36.38
2022-10-20T00:26:06.294Z,45.10
2022-10-20T00:28:59.506Z,39.95
2022-10-20T00:31:43.628Z,29.95
2022-10-20T00:34:20.988Z,29.17
2022-10-20T00:36:55.721Z,27.15
2022-10-20T00:39:34.226Z,30.13
2022-10-20T00:42:06.405Z,24.85
2022-10-20T00:44:53.243Z,27.35
2022-10-20T00:48:01.000Z,22.48
2022-10-20T00:50:48.243Z,23.13
2022-10-20T00:53:19.782Z,24.02
2022-10-20T00:55:58.088Z,22.35
2022-10-20T00:58:36.883Z,20.63
2022-10-20T01:01:13.160Z,23.38
2022-10-20T01:03:56.506Z,20.63
2022-10-20T01:06:31.631Z,20.85
2022-10-20T01:09:12.277Z,22.98
2022-10-20T01:12:11.309Z,24.05
2022-10-20T01:15:10.823Z,23.60
2022-10-20T01:17:54.623Z,23.38
2022-10-20T01:20:50.924Z,25.85
2022-10-20T01:24:01.282Z,23.63
2022-10-20T01:26:46.554Z,24.17
2022-10-20T01:30:02.267Z,32.30
2022-10-20T01:32:56.665Z,32.80
2022-10-20T01:35:49.878Z,29.58
2022-10-20T01:38:53.115Z,21.05
2022-10-20T01:41:34.150Z,32.10
2022-10-20T01:44:12.545Z,35.08
2022-10-20T01:46:56.975Z,35.15
2022-10-20T01:49:36.250Z,35.55
2022-10-20T01:52:15.570Z,33.97
2022-10-20T01:54:59.188Z,29.58
2022-10-20T01:57:53.010Z,30.60
2022-10-20T02:00:35.790Z,28.30
2022-10-20T02:03:40.217Z,27.55
2022-10-20T02:06:36.091Z,28.40
2022-10-20T02:09:31.449Z,24.73
2022-10-20T02:12:14.515Z,27.10
2022-10-20T02:14:50.665Z,29.98
2022-10-20T02:17:36.921Z,25.00
2022-10-20T02:20:15.260Z,28.67
2022-10-20T02:22:53.367Z,27.38
2022-10-20T02:25:36.125Z,27.05
2022-10-20T02:28:16.375Z,24.10
2022-10-20T02:31:03.821Z,25.98
2022-10-20T02:33:48.926Z,30.63
2022-10-20T02:36:20.978Z,33.63
2022-10-20T02:38:58.591Z,33.90
2022-10-20T02:41:40.027Z,32.75
2022-10-20T02:44:23.748Z,33.28
2022-10-20T02:46:58.945Z,29.08
2022-10-20T02:49:34.608Z,28.17
2022-10-20T02:52:10.279Z,25.80
2022-10-20T02:54:53.659Z,23.23
2022-10-20T02:57:34.622Z,25.23
2022-10-20T03:00:13.781Z,26.88
2022-10-20T03:02:59.363Z,27.58
2022-10-20T03:05:47.585Z,28.20
2022-10-20T03:08:30.688Z,32.72
2022-10-20T03:11:21.705Z,39.15
2022-10-20T03:14:05.033Z,40.97
2022-10-20T03:16:42.658Z,43.47
2022-10-20T03:19:20.568Z,38.65
2022-10-20T03:22:03.549Z,38.10
2022-10-20T03:24:48.901Z,38.35
2022-10-20T03:27:39.963Z,38.40
2022-10-20T03:30:20.995Z,35.67
2022-10-20T03:32:56.991Z,36.25
2022-10-20T03:35:37.259Z,39.13
2022-10-20T03:38:24.641Z,39.40
2022-10-20T03:41:05.949Z,40.25
2022-10-20T03:43:46.778Z,43.33
2022-10-20T03:46:37.314Z,45.00
2022-10-20T03:49:16.749Z,39.45
2022-10-20T03:52:00.238Z,40.80
2022-10-20T03:54:46.684Z,36.35
2022-10-20T03:57:36.443Z,36.15
2022-10-20T04:00:17.696Z,40.67
2022-10-20T04:02:55.395Z,37.83
2022-10-20T04:05:39.459Z,38.47
2022-10-20T04:08:19.929Z,43.83
2022-10-20T04:10:51.891Z,49.67
2022-10-20T04:13:29.582Z,55.75
2022-10-20T04:16:15.721Z,56.38
2022-10-20T04:19:09.743Z,57.13
2022-10-20T04:21:50.129Z,62.53
2022-10-20T04:24:24.551Z,70.30
2022-10-20T04:27:01.871Z,55.13
2022-10-20T04:29:50.302Z,50.70
2022-10-20T04:32:39.152Z,43.35
2022-10-20T04:35:17.050Z,40.95
2022-10-20T04:37:51.876Z,39.97
2022-10-20T04:40:33.236Z,38.20
2022-10-20T04:43:17.502Z,39.03
2022-10-20T04:46:11.541Z,39.75
2022-10-20T04:48:56.264Z,40.25
2022-10-20T04:51:35.693Z,35.10
2022-10-20T04:54:16.777Z,41.13
2022-10-20T04:57:01.112Z,36.55
2022-10-20T04:59:42.274Z,35.33
2022-10-20T05:02:34.952Z,38.17
2022-10-20T05:05:09.231Z,37.15
2022-10-20T05:07:50.236Z,35.92
2022-10-20T05:10:34.452Z,35.15
2022-10-20T05:13:18.356Z,42.25
2022-10-20T05:16:04.556Z,38.40
2022-10-20T05:18:48.506Z,43.65
2022-10-20T05:21:25.441Z,43.05
2022-10-20T05:24:05.501Z,48.17
2022-10-20T05:26:39.335Z,39.70
2022-10-20T05:29:21.022Z,42.28
2022-10-20T05:31:59.315Z,48.33
2022-10-20T05:34:43.895Z,44.85
2022-10-20T05:37:24.198Z,50.10
2022-10-20T05:40:06.616Z,57.20
2022-10-20T05:42:40.784Z,68.18
2022-10-20T05:45:25.533Z,70.07
2022-10-20T05:48:06.328Z,63.45
2022-10-20T05:50:49.387Z,78.65
2022-10-20T05:53:29.272Z,79.28
2022-10-20T05:56:12.764Z,100.50
2022-10-20T05:58:56.835Z,116.38
2022-10-20T06:01:56.809Z,113.80
2022-10-20T06:04:39.687Z,127.25
2022-10-20T06:07:20.592Z,125.82
2022-10-20T06:09:58.504Z,135.73
2022-10-20T06:12:43.700Z,158.35
2022-10-20T06:15:24.195Z,172.02
2022-10-20T06:18:06.204Z,160.60
2022-10-20T06:20:41.613Z,174.32
2022-10-20T06:23:25.213Z,167.90
2022-10-20T06:26:07.281Z,174.25
2022-10-20T06:28:51.259Z,165.68
2022-10-20T06:31:32.947Z,168.88
2022-10-20T06:34:17.661Z,153.13
2022-10-20T06:36:58.595Z,155.52
2022-10-20T06:39:40.167Z,142.00
2022-10-20T06:42:15.003Z,134.65
2022-10-20T06:46:00.341Z,127.38
2022-10-20T06:49:08.331Z,104.32
2022-10-20T06:51:55.041Z,99.85
2022-10-20T06:54:41.630Z,80.18
2022-10-20T06:57:27.530Z,63.08
2022-10-20T07:00:05.013Z,54.20
2022-10-20T07:02:49.585Z,39.63
2022-10-20T07:05:30.275Z,35.55
2022-10-20T07:08:11.942Z,29.10
2022-10-20T07:11:00.541Z,28.30
2022-10-20T07:13:41.965Z,23.50
2022-10-20T07:16:22.874Z,20.90
2022-10-20T07:19:12.082Z,19.33
2022-10-20T07:21:52.358Z,10.88
2022-10-20T07:24:30.669Z,11.05
2022-10-20T07:27:10.839Z,9.68
2022-10-20T07:29:52.508Z,9.48
2022-10-20T07:32:31.382Z,9.13
2022-10-20T07:35:09.504Z,9.70
2022-10-20T07:37:44.668Z,9.63
2022-10-20T07:40:20.010Z,7.80
2022-10-20T07:43:07.214Z,8.80
2022-10-20T07:45:45.661Z,8.05
2022-10-20T07:48:29.395Z,8.43
2022-10-20T07:51:30.990Z,8.60
2022-10-20T07:54:08.594Z,8.15
2022-10-20T07:56:57.767Z,8.52
2022-10-20T07:59:35.779Z,8.82
2022-10-20T08:02:23.707Z,7.82
2022-10-20T08:04:56.111Z,6.97
2022-10-20T08:07:33.839Z,6.97
2022-10-20T08:10:17.538Z,6.75
2022-10-20T08:12:54.751Z,5.88
2022-10-20T08:15:36.769Z,6.25
2022-10-20T08:18:11.360Z,5.57
2022-10-20T08:20:51.715Z,5.30
2022-10-20T08:23:29.025Z,5.55
2022-10-20T08:26:11.461Z,5.43
2022-10-20T08:28:51.785Z,4.70
2022-10-20T08:31:34.745Z,5.15
2022-10-20T08:34:12.528Z,4.53
2022-10-20T08:36:44.667Z,4.65
2022-10-20T08:39:24.851Z,4.40
2022-10-20T08:42:08.404Z,4.65
2022-10-20T08:44:50.942Z,4.40
2022-10-20T08:47:32.492Z,4.32
2022-10-20T08:50:12.194Z,4.97
2022-10-20T08:52:51.188Z,4.07
2022-10-20T08:55:36.372Z,4.70
2022-10-20T08:58:20.191Z,4.13
2022-10-20T09:01:01.319Z,4.57
2022-10-20T09:03:42.644Z,4.10
2022-10-20T09:06:19.546Z,4.97
2022-10-20T09:09:05.558Z,4.68
2022-10-20T09:11:43.876Z,4.60
2022-10-20T09:14:27.186Z,4.00
2022-10-20T09:17:17.054Z,3.90
2022-10-20T09:20:01.188Z,4.32
2022-10-20T09:22:35.684Z,4.60
2022-10-20T09:25:20.027Z,4.70
2022-10-20T09:30:41.241Z,4.38
2022-10-20T09:33:47.375Z,4.80
2022-10-20T09:36:30.374Z,4.57
2022-10-20T09:39:08.238Z,4.72
2022-10-20T09:41:43.352Z,5.13
2022-10-20T09:44:25.859Z,4.97
2022-10-20T09:47:06.682Z,5.95
2022-10-20T09:49:47.363Z,4.93
2022-10-20T09:52:34.329Z,5.75
2022-10-20T09:55:30.885Z,5.15
2022-10-20T09:58:12.825Z,5.28
2022-10-20T10:01:08.684Z,5.35
2022-10-20T10:03:58.588Z,5.00
2022-10-20T10:06:49.594Z,5.53
2022-10-20T10:10:08.263Z,4.45
2022-10-20T10:13:00.741Z,6.28
2022-10-20T10:15:43.182Z,4.97
2022-10-20T10:18:28.342Z,4.75
2022-10-20T10:21:30.989Z,4.68
2022-10-20T10:24:09.724Z,4.45
2022-10-20T10:26:58.786Z,4.22
2022-10-20T10:29:49.483Z,4.72
2022-10-20T10:32:23.029Z,4.53
2022-10-20T10:35:18.034Z,4.53
2022-10-20T10:38:00.958Z,4.32
2022-10-20T10:40:51.234Z,5.13
2022-10-20T10:43:39.508Z,4.57
2022-10-20T10:46:26.873Z,4.18
2022-10-20T10:49:38.732Z,4.30
2022-10-20T10:52:33.658Z,4.20
2022-10-20T10:55:47.728Z,4.35
2022-10-20T10:58:29.609Z,4.45
2022-10-20T11:01:12.658Z,4.07
2022-10-20T11:04:04.636Z,4.32
2022-10-20T11:06:57.066Z,3.90
2022-10-20T11:09:47.546Z,4.22
2022-10-20T11:13:01.449Z,3.97
2022-10-20T11:15:46.329Z,4.47
2022-10-20T11:18:53.876Z,4.50
2022-10-20T11:22:02.221Z,4.45
2022-10-20T11:25:01.818Z,3.97
2022-10-20T11:27:47.518Z,4.38
2022-10-20T11:30:32.542Z,3.63
2022-10-20T11:33:26.818Z,4.63
2022-10-20T11:36:40.239Z,4.32
2022-10-20T11:39:28.943Z,4.30
2022-10-20T11:42:18.493Z,4.35
2022-10-20T11:44:54.475Z,4.57
2022-10-20T11:47:59.496Z,3.95
2022-10-20T11:50:40.381Z,4.85
2022-10-20T11:53:33.609Z,3.70
2022-10-20T11:56:37.334Z,5.05
2022-10-20T11:59:31.662Z,4.68
2022-10-20T12:05:23.584Z,3.67
2022-10-20T12:08:29.780Z,5.10
2022-10-20T12:11:21.484Z,4.90
2022-10-20T12:14:11.441Z,3.88
2022-10-20T12:16:59.146Z,5.40
2022-10-20T12:19:41.650Z,3.92
2022-10-20T12:22:46.153Z,4.47
2022-10-20T12:25:40.423Z,4.93
2022-10-20T12:28:30.971Z,5.20
2022-10-20T12:31:10.875Z,5.55
2022-10-20T12:34:16.694Z,5.53
2022-10-20T12:36:54.710Z,4.53
2022-10-20T12:39:40.662Z,5.00
2022-10-20T12:42:39.270Z,4.45
2022-10-20T12:45:27.353Z,5.15
2022-10-20T12:48:04.782Z,4.55
2022-10-20T12:50:57.577Z,4.65
2022-10-20T12:53:40.575Z,4.63
2022-10-20T12:56:17.446Z,5.82
2022-10-20T12:59:21.432Z,5.30
2022-10-20T13:02:24.777Z,5.32
2022-10-20T13:05:02.966Z,5.30
2022-10-20T13:07:52.676Z,4.65
2022-10-20T13:10:38.016Z,5.13
2022-10-20T13:16:10.304Z,4.40
2022-10-20T13:18:50.713Z,5.07
2022-10-20T13:21:32.628Z,5.43
2022-10-20T13:24:23.328Z,4.78
2022-10-20T13:27:05.332Z,4.90
2022-10-20T13:29:55.206Z,5.20
2022-10-20T13:32:47.803Z,5.20
2022-10-20T13:36:02.723Z,4.45
2022-10-20T13:38:58.961Z,4.72
2022-10-20T13:42:10.232Z,4.70
2022-10-20T13:44:57.916Z,3.75
2022-10-20T13:47:36.432Z,4.72
2022-10-20T13:53:06.037Z,4.10
2022-10-20T13:56:07.140Z,4.40
2022-10-20T13:58:48.257Z,4.13
2022-10-20T14:01:29.038Z,4.32
2022-10-20T14:04:20.163Z,4.18
2022-10-20T14:06:52.811Z,4.10
2022-10-20T14:09:35.185Z,3.55
2022-10-20T14:12:26.850Z,4.15
2022-10-20T14:15:04.445Z,3.20
2022-10-20T14:17:55.202Z,4.10
2022-10-20T14:20:33.366Z,4.00
2022-10-20T14:23:09.598Z,3.53
2022-10-20T14:25:52.937Z,4.43
2022-10-20T14:28:40.032Z,3.25
2022-10-20T14:31:27.474Z,3.40
2022-10-20T14:34:23.998Z,3.58
2022-10-20T14:37:08.232Z,3.10
2022-10-20T14:39:52.399Z,3.83
2022-10-20T14:42:39.155Z,3.25
2022-10-20T14:45:25.407Z,4.75
2022-10-20T14:48:03.198Z,4.70
2022-10-20T14:50:50.215Z,3.80
2022-10-20T14:53:37.234Z,3.58
2022-10-20T14:56:37.187Z,3.78
2022-10-20T14:59:23.323Z,3.35
2022-10-20T15:02:14.312Z,3.35
2022-10-20T15:04:52.313Z,3.17
2022-10-20T15:07:41.087Z,3.20
2022-10-20T15:10:17.312Z,3.20
2022-10-20T15:12:56.133Z,3.13
2022-10-20T15:15:55.349Z,2.88
2022-10-20T15:18:37.909Z,3.00
2022-10-20T15:21:41.785Z,2.65
2022-10-20T15:24:28.734Z,3.03
2022-10-20T15:27:18.341Z,3.85
2022-10-20T15:29:57.449Z,4.35
2022-10-20T15:32:37.834Z,3.42
2022-10-20T15:35:24.269Z,3.38
2022-10-20T15:38:07.405Z,3.80
2022-10-20T15:40:50.246Z,3.40
2022-10-20T15:43:24.409Z,3.50
2022-10-20T15:46:05.932Z,3.80
2022-10-20T15:48:45.642Z,3.65
2022-10-20T15:51:40.222Z,7.13
2022-10-20T15:54:16.045Z,6.82
2022-10-20T15:56:47.815Z,5.05
2022-10-20T15:59:57.977Z,7.05
2022-10-20T16:02:35.692Z,8.45
2022-10-20T16:05:24.349Z,8.63
2022-10-20T16:10:55.019Z,9.82
2022-10-20T16:13:38.481Z,10.02
2022-10-20T16:16:17.341Z,11.35
2022-10-20T16:19:09.585Z,13.68
2022-10-20T16:21:56.483Z,19.15
2022-10-20T16:24:40.084Z,18.35
2022-10-20T16:27:28.580Z,19.40
2022-10-20T16:30:10.291Z,25.25
2022-10-20T16:35:36.215Z,51.58
2022-10-20T16:38:18.612Z,46.55
2022-10-20T16:41:19.816Z,48.22
2022-10-20T16:44:04.104Z,56.47
2022-10-20T16:46:44.830Z,50.50
2022-10-20T16:49:48.110Z,47.35
2022-10-20T16:52:29.476Z,37.50
2022-10-20T16:55:11.214Z,29.77
2022-10-20T16:57:46.687Z,30.13
2022-10-20T17:00:33.752Z,27.45
2022-10-20T17:03:20.186Z,26.17
2022-10-20T17:06:02.138Z,26.33
2022-10-20T17:08:45.186Z,26.67
2022-10-20T17:11:22.507Z,25.08
2022-10-20T17:14:04.045Z,26.52
2022-10-20T17:16:47.368Z,26.80
2022-10-20T17:19:28.238Z,25.52
2022-10-20T17:22:06.477Z,25.25
2022-10-20T17:24:47.131Z,24.67
2022-10-20T17:27:27.632Z,22.67
2022-10-20T17:30:21.852Z,23.55
2022-10-20T17:33:07.456Z,22.33
2022-10-20T17:35:37.489Z,21.13
2022-10-20T17:38:14.243Z,23.95
2022-10-20T17:40:52.294Z,21.92
2022-10-20T17:43:34.402Z,20.65
2022-10-20T17:46:08.910Z,20.67
2022-10-20T17:48:43.862Z,20.33
2022-10-20T17:51:33.383Z,20.98
2022-10-20T17:54:20.565Z,19.48
2022-10-20T17:57:01.171Z,18.92
2022-10-20T17:59:47.304Z,19.20
2022-10-20T18:02:35.594Z,20.25
2022-10-20T18:05:14.479Z,20.08
2022-10-20T18:07:46.063Z,20.70
2022-10-20T18:10:18.482Z,21.73
2022-10-20T18:12:56.624Z,25.33
2022-10-20T18:15:34.736Z,24.35
2022-10-20T18:18:16.268Z,27.45
2022-10-20T18:21:12.394Z,28.83
2022-10-20T18:23:58.929Z,29.60
2022-10-20T18:26:37.433Z,30.73
2022-10-20T18:29:16.922Z,30.20
2022-10-20T18:31:58.194Z,30.58
2022-10-20T18:34:38.574Z,30.30
2022-10-20T18:37:19.375Z,31.15
2022-10-20T18:39:55.281Z,28.02
2022-10-20T18:42:34.326Z,26.17
2022-10-20T18:45:15.071Z,27.50
2022-10-20T18:47:52.686Z,33.67
2022-10-20T18:50:24.946Z,35.42
2022-10-20T18:53:00.286Z,41.53
2022-10-20T18:55:41.174Z,43.25
2022-10-20T18:58:16.084Z,49.28
2022-10-20T19:00:50.356Z,51.75
2022-10-20T19:03:35.237Z,55.05
2022-10-20T19:06:13.884Z,53.55
2022-10-20T19:08:49.918Z,58.92
2022-10-20T19:11:26.928Z,60.28
2022-10-20T19:14:05.678Z,65.78
2022-10-20T19:16:46.142Z,64.35
2022-10-20T19:19:28.724Z,62.85
2022-10-20T19:22:06.741Z,58.45
2022-10-20T19:24:47.041Z,59.70
2022-10-20T19:27:26.996Z,54.75
2022-10-20T19:30:03.076Z,56.38
2022-10-20T19:32:52.366Z,54.38
2022-10-20T19:35:27.993Z,53.97
2022-10-20T19:38:08.360Z,58.05
2022-10-20T19:40:44.327Z,55.70
2022-10-20T19:43:25.194Z,57.85
2022-10-20T19:46:14.734Z,58.15
2022-10-20T19:48:53.579Z,56.17
2022-10-20T19:51:38.393Z,57.95
2022-10-20T19:54:11.986Z,56.75
2022-10-20T19:59:26.352Z,53.45
2022-10-20T20:02:10.091Z,51.83
2022-10-20T20:04:49.972Z,55.03
2022-10-20T20:07:29.821Z,52.25
2022-10-20T20:10:10.247Z,56.30
2022-10-20T20:12:48.213Z,55.33
2022-10-20T20:15:25.117Z,55.15
2022-10-20T20:18:13.075Z,58.97
2022-10-20T20:20:44.258Z,51.65
2022-10-20T20:23:26.079Z,53.25
2022-10-20T20:26:26.402Z,57.40
2022-10-20T20:29:15.408Z,57.88
2022-10-20T20:31:57.981Z,60.47
2022-10-20T20:34:29.693Z,59.00
2022-10-20T20:37:01.909Z,63.90
2022-10-20T20:39:35.751Z,61.63
2022-10-20T20:42:14.194Z,65.25
2022-10-20T20:44:56.287Z,61.22
2022-10-20T20:47:31.454Z,54.45
2022-10-20T20:50:15.530Z,52.25
2022-10-20T20:52:47.488Z,50.88
2022-10-20T20:55:22.380Z,50.25
2022-10-20T20:57:54.442Z,52.30
2022-10-20T21:00:34.438Z,47.30
2022-10-20T21:03:11.467Z,48.38
2022-10-20T21:05:42.534Z,48.22
2022-10-20T21:08:15.390Z,44.30
2022-10-20T21:10:53.516Z,49.38
2022-10-20T21:13:42.026Z,47.90
2022-10-20T21:16:32.863Z,48.90
2022-10-20T21:19:17.544Z,46.47
2022-10-20T21:22:01.244Z,53.13
2022-10-20T21:24:40.683Z,50.97
2022-10-20T21:27:26.660Z,48.25
2022-10-20T21:30:04.040Z,53.42
2022-10-20T21:32:45.350Z,52.75
2022-10-20T21:35:22.519Z,58.55
2022-10-20T21:38:04.162Z,51.40
2022-10-20T21:40:39.368Z,58.40
2022-10-20T21:43:14.168Z,57.03
2022-10-20T21:45:53.896Z,53.50
2022-10-20T21:48:38.750Z,54.90
2022-10-20T21:51:24.224Z,58.25
2022-10-20T21:54:15.393Z,54.58
2022-10-20T21:56:50.408Z,54.17
2022-10-20T21:59:30.450Z,56.95
2022-10-20T22:02:05.617Z,55.83
2022-10-20T22:04:41.112Z,57.95
2022-10-20T22:07:24.422Z,62.17
2022-10-20T22:10:10.578Z,61.67
2022-10-20T22:12:48.093Z,63.00
2022-10-20T22:15:37.041Z,60.25
2022-10-20T22:18:17.641Z,63.08
2022-10-20T22:20:56.194Z,64.78
2022-10-20T22:23:30.722Z,58.55
2022-10-20T22:26:11.426Z,56.00
2022-10-20T22:28:43.373Z,57.33
2022-10-20T22:31:32.345Z,58.20
2022-10-20T22:34:15.394Z,59.45
2022-10-20T22:36:58.353Z,60.22
2022-10-20T22:39:43.197Z,63.70
2022-10-20T22:42:25.616Z,61.08
2022-10-20T22:45:06.645Z,71.70
2022-10-20T22:47:56.226Z,64.88
2022-10-20T22:50:37.936Z,67.03
2022-10-20T22:53:16.450Z,70.72
2022-10-20T22:55:51.135Z,67.32
2022-10-20T22:58:30.180Z,62.90
2022-10-20T23:01:19.268Z,70.80
2022-10-20T23:03:59.615Z,65.18
2022-10-20T23:06:45.108Z,68.57
2022-10-20T23:09:17.683Z,70.47
2022-10-20T23:11:56.572Z,66.53
2022-10-20T23:14:31.978Z,66.20
2022-10-20T23:17:06.863Z,64.32
2022-10-20T23:19:44.231Z,62.60
2022-10-20T23:22:29.494Z,59.97
2022-10-20T23:25:13.157Z,56.33
2022-10-20T23:27:58.511Z,63.22
2022-10-20T23:30:43.690Z,63.22
2022-10-20T23:33:34.439Z,63.10
2022-10-20T23:36:14.578Z,72.15
2022-10-20T23:38:53.929Z,58.97
2022-10-20T23:41:31.819Z,60.58
2022-10-20T23:44:06.534Z,63.10
2022-10-20T23:46:46.377Z,57.03
2022-10-20T23:49:27.386Z,58.75
2022-10-20T23:52:11.150Z,66.43
2022-10-20T23:54:54.173Z,61.90
2022-10-20T23:57:32.165Z,58.42
